Terminal Aerodrome Forecast
Issued by NWS

Home | Current Version | Previous Version | Text Only | Print | Product List | Glossary On
Versions: 1 2 3 4 5 6 7 8 9 10 11 12 13 14 15 16 17 18 19 20 21 22 23 24 25 26
083
FTUS42 KCAE 260245 AAA
TAFOGB
TAF AMD
KOGB 260245Z 2603/2624 04003KT P6SM SCT060
      TEMPO 2609/2612 4SM BR
     FM261200 36005KT P6SM SCT250
      TEMPO 2612/2616 BKN025
     FM261600 36007KT P6SM SCT035 SCT250=

USA.gov is the U.S. government's official web portal to all federal, state and local government web resources and services.